Weather at St. Mary's Hospital Heliport

Public forecast

Using degrees Fahrenheit for public forecast. Weather courtesy of forecast.io.

Closest aviation weather report (METAR) to St. Mary's Hospital Heliport

Closest report is Hanover County Municipal Airport, 8.9 nm (16.5 km) NNE. Retrieved 2020/10/20 11:33 UTC (14 minutes ago):

KOFP 201133Z AUTO 18005KT 1 1/4SM BR OVC002 16/15 A3023 RMK AO2 T01610150

Closest aviation forecast (TAF) to St. Mary's Hospital Heliport

Closest forecast is Richmond International Airport, 9.6 nm (17.7 km) ESE. Retrieved 2020/10/20 06:52 UTC (5 hours ago):

TAF KRIC 200550Z 2006/2106 VRB03KT P6SM SCT005 BKN015 TEMPO 2006/2010 3SM BR BKN005 FM201000 00000KT 2SM BR OVC005 FM201300 22004KT 3SM BR BKN010 FM201400 18005KT P6SM SCT040 BKN100